Latest Coastal Weather Observations for Smithton

IDT60701

Issued at 7:15 pm EDT Wednesday 22 October 2014 (issued every 10 minutes, with the page automatically refreshed every 10 minutes)

About coastal observations | Map of coastal stations | Coastal observations for TAS | Marine services | Other Formats
Station Details ID: 091292 Name: SMITHTON AERODROME Lat: -40.83 Lon: 145.08 Height: 7.5 m
Data from the previous 72 hours. | See also: Recent months at Smithton
Date/Time
EDT
Temp

°C
Wind Pressure Rain
since 9am
mm
Weather Cloud Vis
km
Sea
Height
m
Swell
Dir
 
Speed
knots
Gust
knots
hPa Trend Height
m
Period
s
Dir
22/07:00pm 15.1 W 6 8 1016.9 - 0.0 - - - - - - -
22/06:30pm 15.2 N 3 6 1016.9 - 0.0 - - - - - - -
22/06:00pm 15.4 NE 2 17 1016.6 - 0.0 - - - - - - -
22/05:57pm 15.4 NE 2 17 1016.4 - 0.0 - - - - - - -
22/05:50pm 15.3 E 12 17 1014.4 - 0.0 - - - - - - -
22/05:30pm 15.6 N 6 11 1016.4 - 0.0 - - - - - - -
22/05:16pm 15.4 ENE 11 17 1014.6 - 0.0 - - - - - - -
22/05:00pm 15.9 ENE 6 8 1016.6 - 0.0 - - - - - - -
22/04:30pm 15.6 SSE 4 17 1016.7 - 0.0 - - - - - - -
22/04:00pm 16.3 ENE 11 15 1016.6 - 0.0 - - - - - - -
22/03:30pm 17.2 ENE 12 15 1016.4 - 0.0 - - - - - - -
22/03:00pm 16.9 ENE 15 18 1016.6 - 0.0 - - - - - - -
22/02:30pm 17.4 ENE 16 19 1016.8 - 0.0 - - - - - - -
22/02:00pm 17.6 ENE 16 21 1017.1 - 0.0 - - - - - - -
22/01:36pm 17.8 ENE 17 27 1017.3 - 0.0 - - - - - - -
22/01:30pm 18.0 ENE 19 24 1017.4 - 0.0 - - - - - - -
22/01:00pm 17.2 ENE 18 22 1017.6 - 0.0 - - - - - - -
22/12:30pm 16.3 ENE 18 22 1018.0 - 0.0 - - - - - - -
22/12:00pm 17.1 ENE 17 23 1018.6 - 0.0 - - - - - - -
22/11:30am 17.3 E 19 25 1019.2 - 0.0 - - - - - - -
22/11:00am 17.4 E 19 25 1019.8 - 0.0 - - - - - - -
22/10:30am 16.8 E 17 24 1020.2 - 0.0 - - - - - - -
22/10:00am 16.3 ENE 20 26 1020.3 - 0.0 - - - - - - -
22/09:45am 16.4 E 16 27 1020.3 - 0.0 - - - - - - -
22/09:30am 16.1 ENE 19 27 1020.2 - 0.0 - - - - - - -
22/09:00am 15.7 E 18 26 1020.6 - 0.0 - - - - - - -
22/08:51am 15.6 ENE 16 26 1020.8 - 0.0 - - - - - - -
22/08:30am 15.4 E 14 19 1021.2 - 0.0 - - - - - - -
22/08:00am 14.5 ENE 15 22 1021.1 - 0.0 - - - - - - -
22/07:30am 13.7 E 15 21 1020.9 - 0.0 - - - - - - -
22/07:00am 13.0 E 14 19 1021.3 - 0.0 - - - - - - -
22/06:30am 12.6 E 15 22 1021.5 - 0.0 - - - - - - -
22/06:00am 12.5 E 14 21 1021.5 - 0.0 - - - - - - -
22/05:30am 12.4 E 14 19 1021.3 - 0.0 - - - - - - -
22/05:00am 12.4 E 16 22 1021.3 - 0.0 - - - - - - -
22/04:48am 12.5 E 16 26 1021.5 - 0.0 - - - - - - -
22/04:30am 12.5 E 16 21 1021.8 - 0.0 - - - - - - -
22/04:16am 12.7 E 17 27 1022.0 - 0.0 - - - - - - -
22/04:00am 12.5 E 17 26 1021.9 - 0.0 - - - - - - -
22/03:30am 12.7 E 18 23 1022.7 - 0.0 - - - - - - -
22/03:00am 13.2 ENE 17 23 1023.1 - 0.0 - - - - - - -
22/02:30am 13.1 ENE 18 27 1023.6 - 0.0 - - - - - - -
22/02:00am 13.0 E 20 27 1023.9 - 0.0 - - - - - - -
22/01:52am 13.0 E 18 28 1023.9 - 0.0 - - - - - - -
22/01:30am 12.8 E 19 25 1024.4 - 0.0 - - - - - - -
22/01:25am 12.9 E 19 29 1024.6 - 0.0 - - - - - - -
22/01:00am 12.8 E 18 25 1024.8 - 0.0 - - - - - - -
22/12:30am 12.8 E 18 26 1025.6 - 0.0 - - - - - - -
22/12:00am 12.7 E 17 23 1025.8 - 0.0 - - - - - - -
 
Date/Time
EDT
Temp

°C
Wind Pressure Rain
since 9am
mm
Weather Cloud Vis
km
Sea
Height
m
Swell
Dir
 
Speed
knots
Gust
knots
hPa Trend Height
m
Period
s
Dir
21/11:30pm 12.8 E 18 28 1026.1 - 0.0 - - - - - - -
21/11:22pm 12.9 ENE 17 28 1026.1 - 0.0 - - - - - - -
21/11:00pm 12.6 ENE 16 22 1026.6 - 0.0 - - - - - - -
21/10:30pm 12.5 ENE 16 24 1026.7 - 0.0 - - - - - - -
21/10:00pm 12.4 ENE 15 21 1027.0 - 0.0 - - - - - - -
21/09:30pm 12.6 ENE 16 21 1027.2 - 0.0 - - - - - - -
21/09:00pm 12.7 E 17 25 1026.8 - 0.0 - - - - - - -
21/08:30pm 12.5 ENE 15 24 1027.0 - 0.0 - - - - - - -
21/08:00pm 12.6 E 17 25 1027.2 - 0.0 - - - - - - -
21/07:30pm 12.9 ENE 15 21 1027.6 - 0.0 - - - - - - -
21/07:00pm 13.6 E 17 24 1027.3 - 0.0 - - - - - - -
21/06:49pm 13.8 E 17 27 1027.4 - 0.0 - - - - - - -
21/06:30pm 14.2 E 20 27 1027.1 - 0.0 - - - - - - -
21/06:00pm 14.8 E 19 29 1027.4 - 0.0 - - - - - - -
21/05:30pm 15.0 E 22 32 1027.6 - 0.0 - - - - - - -
21/05:01pm 15.5 E 22 32 1028.0 - 0.0 - - - - - - -
21/05:00pm 15.5 E 23 32 1028.0 - 0.0 - - - - - - -
21/04:30pm 15.9 ENE 22 32 1028.2 - 0.0 - - - - - - -
21/04:09pm 15.9 E 22 32 1028.0 - 0.0 - - - - - - -
21/04:00pm 15.9 E 24 32 1028.0 - 0.0 - - - - - - -
21/03:38pm 16.7 E 22 32 1028.3 - 0.0 - - - - - - -
21/03:30pm 16.1 E 25 32 1028.4 - 0.0 - - - - - - -
21/03:00pm 16.6 E 22 30 1028.7 - 0.0 - - - - - - -
21/02:39pm 16.4 E 22 33 1028.8 - 0.0 - - - - - - -
21/02:30pm 17.0 E 23 31 1029.1 - 0.0 - - - - - - -
21/02:14pm 16.4 E 25 35 1029.3 - 0.0 - - - - - - -
21/02:00pm 16.1 E 23 32 1029.5 - 0.0 - - - - - - -
21/01:35pm 15.8 E 24 34 1029.9 - 0.0 - - - - - - -
21/01:30pm 16.1 E 24 30 1030.1 - 0.0 - - - - - - -
21/01:14pm 15.7 E 23 33 1030.2 - 0.0 - - - - - - -
21/01:00pm 15.6 E 23 32 1030.3 - 0.0 - - - - - - -
21/12:30pm 15.9 E 21 31 1030.7 - 0.0 - - - - - - -
21/12:00pm 15.7 E 20 30 1031.1 - 0.0 - - - - - - -
21/11:47am 15.5 E 21 31 1031.1 - 0.0 - - - - - - -
21/11:30am 15.0 E 21 28 1031.2 - 0.0 - - - - - - -
21/11:07am 14.9 E 23 34 1031.2 - 0.0 - - - - - - -
21/11:00am 15.0 E 24 31 1031.1 - 0.0 - - - - - - -
21/10:30am 14.8 E 22 30 1031.5 - 0.0 - - - - - - -
21/10:16am 15.2 E 19 29 1031.6 - 0.0 - - - - - - -
21/10:00am 14.8 E 20 28 1031.3 - 0.0 - - - - - - -
21/09:37am 14.4 ENE 19 32 1031.7 - 0.0 - - - - - - -
21/09:30am 14.4 ENE 18 27 1031.6 - 0.0 - - - - - - -
21/09:12am 13.7 E 20 31 1031.7 - 0.0 - - - - - - -
21/09:00am 13.8 E 19 26 1031.7 - 0.0 - - - - - - -
21/08:30am 13.5 ENE 20 27 1031.5 - 0.0 - - - - - - -
21/08:01am 13.1 ENE 16 26 1031.7 - 0.0 - - - - - - -
21/08:00am 13.0 ENE 17 26 1031.8 - 0.0 - - - - - - -
21/07:30am 12.2 E 15 23 1031.6 - 0.0 - - - - - - -
21/07:00am 11.6 ENE 18 24 1031.4 - 0.0 - - - - - - -
21/06:30am 11.4 ENE 18 25 1031.2 - 0.0 - - - - - - -
21/06:19am 11.7 ENE 17 28 1031.2 - 0.0 - - - - - - -
21/06:00am 11.8 ENE 15 22 1031.0 - 0.0 - - - - - - -
21/05:30am 11.8 ENE 18 26 1030.9 - 0.0 - - - - - - -
21/05:00am 11.5 ENE 17 25 1031.0 - 0.0 - - - - - - -
21/04:56am 11.7 ENE 15 25 1030.9 - 0.0 - - - - - - -
21/04:30am 11.6 ENE 18 25 1030.9 - 0.0 - - - - - - -
21/04:00am 11.0 ENE 17 24 1030.7 - 0.0 - - - - - - -
21/03:30am 10.8 ENE 17 23 1031.0 - 0.0 - - - - - - -
21/03:00am 11.1 ENE 18 24 1031.3 - 0.0 - - - - - - -
21/02:30am 11.3 ENE 16 23 1031.7 - 0.0 - - - - - - -
21/02:00am 11.3 ENE 16 23 1032.0 - 0.0 - - - - - - -
21/01:30am 11.5 ENE 16 21 1032.6 - 0.0 - - - - - - -
21/01:00am 11.3 ENE 14 18 1032.9 - 0.0 - - - - - - -
21/12:30am 8.6 E 7 11 1033.1 - 0.0 - - - - - - -
21/12:00am 7.2 ESE 8 9 1033.1 - 0.0 - - - - - - -
 
Date/Time
EDT
Temp

°C
Wind Pressure Rain
since 9am
mm
Weather Cloud Vis
km
Sea
Height
m
Swell
Dir
 
Speed
knots
Gust
knots
hPa Trend Height
m
Period
s
Dir
20/11:30pm 6.6 ESE 7 8 1033.3 - 0.0 - - - - - - -
20/11:00pm 6.4 ESE 7 8 1033.4 - 0.0 - - - - - - -
20/10:30pm 6.1 ESE 7 8 1033.6 - 0.0 - - - - - - -
20/10:00pm 6.4 ESE 6 7 1033.9 - 0.0 - - - - - - -
20/09:30pm 7.0 E 4 6 1034.0 - 0.0 - - - - - - -
20/09:00pm 7.4 E 5 6 1033.7 - 0.0 - - - - - - -
20/08:30pm 7.0 E 5 6 1033.3 - 0.0 - - - - - - -
20/08:00pm 7.7 E 6 8 1033.0 - 0.0 - - - - - - -
20/07:30pm 9.5 E 7 7 1033.0 - 0.0 - - - - - - -
20/07:00pm 11.2 NE 7 9 1032.9 - 0.0 - - - - - - -
20/06:30pm 11.9 NNE 7 9 1033.0 - 0.0 - - - - - - -
20/06:00pm 12.2 NE 9 11 1033.2 - 0.0 - - - - - - -
20/05:30pm 12.6 NE 9 12 1033.2 - 0.0 - - - - - - -
20/05:00pm 13.1 NE 11 14 1033.3 - 0.0 - - - - - - -
20/04:30pm 13.4 NE 11 14 1033.3 - 0.0 - - - - - - -
20/04:00pm 13.4 NE 11 15 1033.3 - 0.0 - - - - - - -
20/03:30pm 13.3 NE 12 18 1033.4 - 0.0 - - - - - - -
20/03:00pm 13.4 NNE 13 18 1033.5 - 0.0 - - - - - - -
20/02:30pm 13.3 NE 12 19 1033.8 - 0.0 - - - - - - -
20/02:00pm 13.5 NE 14 21 1034.0 - 0.0 - - - - - - -
20/01:30pm 13.9 ENE 12 17 1034.2 - 0.0 - - - - - - -
20/01:00pm 13.2 NNE 12 20 1034.1 - 0.0 - - - - - - -
20/12:30pm 12.8 NE 10 16 1034.5 - 0.0 - - - - - - -
20/12:00pm 13.0 ENE 10 14 1034.7 - 0.0 - - - - - - -
20/11:30am 13.1 ENE 9 14 1034.7 - 0.0 - - - - - - -
20/11:00am 12.7 NE 9 15 1034.7 - 0.0 - - - - - - -
20/10:30am 12.0 E 8 11 1034.5 - 0.0 - - - - - - -
20/10:00am 11.4 ESE 8 11 1034.4 - 0.0 - - - - - - -
20/09:30am 10.4 ESE 9 11 1034.3 - 0.0 - - - - - - -
20/09:00am 9.0 SSE 6 8 1034.0 - 1.0 - - - - - - -
20/08:30am 6.5 S 8 10 1033.8 - 1.0 - - - - - - -
20/08:00am 4.5 S 8 10 1033.6 - 1.0 - - - - - - -
20/07:30am 2.4 S 8 9 1033.2 - 0.8 - - - - - - -
20/07:00am 1.0 S 8 10 1032.7 - 0.6 - - - - - - -
20/06:30am 0.4 SE 5 6 1032.4 - 0.6 - - - - - - -
20/06:00am 0.3 SSW 6 8 1031.9 - 0.6 - - - - - - -
20/05:30am 0.8 S 3 4 1031.4 - 0.6 - - - - - - -
20/05:00am 1.7 S 5 7 1030.8 - 0.6 - - - - - - -
20/04:30am 0.8 S 7 9 1031.0 - 0.6 - - - - - - -
20/04:00am 0.9 SSW 5 6 1030.4 - 0.6 - - - - - - -
20/03:30am 1.4 SSW 6 7 1030.4 - 0.6 - - - - - - -
20/03:00am 1.5 S 4 5 1030.4 - 0.6 - - - - - - -
20/02:30am 2.2 SW 3 4 1030.3 - 0.6 - - - - - - -
20/02:00am 3.0 CALM 0 0 1030.5 - 0.6 - - - - - - -
20/01:30am 3.4 SW 3 4 1030.3 - 0.6 - - - - - - -
20/01:00am 4.3 CALM 0 0 1030.1 - 0.6 - - - - - - -
20/12:30am 4.2 SW 4 6 1029.6 - 0.6 - - - - - - -
20/12:00am 5.2 SW 5 6 1028.9 - 0.6 - - - - - - -
 
Date/Time
EDT
Temp

°C
Wind Pressure Rain
since 9am
mm
Weather Cloud Vis
km
Sea
Height
m
Swell
Dir
 
Speed
knots
Gust
knots
hPa Trend Height
m
Period
s
Dir
19/11:30pm 5.8 SW 6 7 1028.5 - 0.6 - - - - - - -
19/11:00pm 6.7 SSW 8 12 1028.1 - 0.6 - - - - - - -
19/10:30pm 7.5 SW 10 16 1027.6 - 0.6 - - - - - - -
19/10:00pm 7.2 SW 8 12 1027.2 - 0.6 - - - - - - -
19/09:30pm 7.3 SSW 9 11 1026.8 - 0.6 - - - - - - -
19/09:00pm 7.8 SSW 11 15 1026.0 - 0.6 - - - - - - -
19/08:30pm 8.3 SW 11 15 1024.9 - 0.6 - - - - - - -
19/08:00pm 8.8 SW 15 21 1024.3 - 0.6 - - - - - - -
19/07:30pm 9.4 SW 16 24 1023.8 - 0.6 - - - - - - -

Other Formats:

Comma delimited format used in spreadsheet applications
http://www.bom.gov.au/fwo/IDT60701/IDT60701.94953.axf

JavaScript Object Notation format (JSON) in row-major order
http://www.bom.gov.au/fwo/IDT60701/IDT60701.94953.json